Time;durP1;ratioP1;P1;durP2;ratioP2;P2;SDS_P1;SDS_P2;PMS_P1;PMS_P2;Temp;Humidity;BMP_temperature;BMP_pressure;BME280_temperature;BME280_humidity;BME280_pressure;Samples;Min_cycle;Max_cycle;Signal;HPM_P1;HPM_P2
2021/06/26 00:01:44;;;;;;;20.98;15.98;;;;;;;16.73;78.04;101778.34;5054972;28;20046;-51
2021/06/26 00:04:25;;;;;;;20.10;16.55;;;;;;;16.74;77.76;101778.06;5055239;28;20052;-51
2021/06/26 00:06:53;;;;;;;19.15;15.63;;;;;;;16.75;77.31;101773.38;5048621;28;20044;-50
2021/06/26 00:09:21;;;;;;;19.48;15.98;;;;;;;16.75;77.57;101778.88;5055575;28;20033;-48
2021/06/26 00:11:49;;;;;;;19.92;15.80;;;;;;;16.77;77.67;101777.50;5055182;28;20069;-49
2021/06/26 00:14:17;;;;;;;19.10;15.75;;;;;;;16.80;77.05;101773.38;5054807;28;20373;-50
2021/06/26 00:16:45;;;;;;;20.23;16.08;;;;;;;16.81;76.80;101775.00;5053362;28;20041;-48
2021/06/26 00:19:13;;;;;;;20.90;15.23;;;;;;;16.81;76.64;101769.50;5055284;28;20052;-50
2021/06/26 00:21:40;;;;;;;19.17;15.45;;;;;;;16.80;76.60;101778.88;5055521;28;20048;-53
2021/06/26 00:24:08;;;;;;;23.73;15.93;;;;;;;16.78;76.79;101770.06;5054875;28;20439;-50
2021/06/26 00:26:36;;;;;;;19.23;15.30;;;;;;;16.74;76.52;101768.97;5055282;28;20430;-51
2021/06/26 00:29:04;;;;;;;18.35;15.20;;;;;;;16.66;76.81;101770.41;5054826;28;20048;-51
2021/06/26 00:31:31;;;;;;;21.33;15.50;;;;;;;16.63;76.75;101772.91;5054913;28;20049;-51
2021/06/26 00:33:59;;;;;;;18.52;15.70;;;;;;;16.61;77.17;101770.44;5054989;28;20526;-53
2021/06/26 00:36:27;;;;;;;21.17;16.58;;;;;;;16.60;76.93;101775.13;5054570;28;20049;-50
2021/06/26 00:38:55;;;;;;;22.00;15.95;;;;;;;16.61;77.17;101774.00;5054906;28;20045;-50
2021/06/26 00:41:22;;;;;;;21.92;16.63;;;;;;;16.62;76.92;101772.09;5054411;28;20037;-49
2021/06/26 00:44:02;;;;;;;20.98;15.85;;;;;;;16.61;76.77;101768.50;5054395;28;20044;-52
2021/06/26 00:46:29;;;;;;;19.75;16.17;;;;;;;16.59;77.08;101773.47;5054436;28;20111;-52
2021/06/26 00:48:57;;;;;;;21.55;16.77;;;;;;;16.61;76.80;101773.19;5054797;28;20102;-54
2021/06/26 00:51:25;;;;;;;22.67;15.57;;;;;;;16.59;76.69;101765.22;5055441;28;20037;-52
2021/06/26 00:53:53;;;;;;;18.55;15.40;;;;;;;16.56;76.94;101768.53;5054715;28;20045;-52
2021/06/26 00:56:20;;;;;;;19.77;16.23;;;;;;;16.57;77.08;101774.88;5055045;28;20077;-51
2021/06/26 00:58:55;;;;;;;21.58;16.92;;;;;;;16.56;76.49;101776.81;5053166;28;20497;-48
2021/06/26 01:01:23;;;;;;;18.60;15.18;;;;;;;16.50;76.91;101780.72;5053321;28;20102;-51
2021/06/26 01:03:51;;;;;;;21.02;16.17;;;;;;;16.42;76.61;101781.28;5054295;28;20049;-53
2021/06/26 01:06:18;;;;;;;20.58;15.73;;;;;;;16.37;77.13;101775.81;5054585;28;20057;-50
2021/06/26 01:08:46;;;;;;;19.20;15.82;;;;;;;16.33;77.28;101775.56;5054544;28;20099;-47
2021/06/26 01:11:14;;;;;;;19.98;15.20;;;;;;;16.29;77.46;101773.69;5054594;28;20060;-50
2021/06/26 01:13:41;;;;;;;22.15;16.40;;;;;;;16.30;77.11;101783.56;5052137;28;20090;-50
2021/06/26 01:16:09;;;;;;;20.50;15.45;;;;;;;16.32;77.35;101781.34;5054205;28;20495;-51
2021/06/26 01:18:37;;;;;;;20.05;15.48;;;;;;;16.33;77.44;101785.72;5053816;28;20115;-53
2021/06/26 01:21:04;;;;;;;18.23;14.88;;;;;;;16.34;77.21;101777.22;5054241;28;20048;-50
2021/06/26 01:23:53;;;;;;;22.27;16.50;;;;;;;16.36;76.73;101769.50;5054159;28;20045;-50
2021/06/26 01:26:24;;;;;;;19.67;16.73;;;;;;;16.37;76.74;101775.81;5053963;28;20045;-50
2021/06/26 01:28:52;;;;;;;20.70;15.88;;;;;;;16.35;76.57;101783.53;5053455;28;20107;-51
2021/06/26 01:31:20;;;;;;;21.05;16.90;;;;;;;16.29;76.61;101774.50;5054131;28;20041;-51
2021/06/26 01:33:47;;;;;;;22.02;15.75;;;;;;;16.27;76.95;101782.19;5054035;28;20069;-50
2021/06/26 01:36:15;;;;;;;19.92;16.27;;;;;;;16.26;77.15;101780.56;5040280;28;20048;-52
2021/06/26 01:38:43;;;;;;;19.88;15.02;;;;;;;16.24;77.20;101771.78;5053882;28;20049;-53
2021/06/26 01:41:10;;;;;;;20.65;16.05;;;;;;;16.22;76.77;101773.97;5053623;28;20091;-50
2021/06/26 01:43:38;;;;;;;19.73;15.18;;;;;;;16.16;76.85;101770.44;5053038;28;20049;-51
2021/06/26 01:46:06;;;;;;;19.77;15.70;;;;;;;16.17;77.39;101772.06;5053398;28;20077;-50
2021/06/26 01:48:33;;;;;;;19.45;16.20;;;;;;;16.19;76.98;101756.13;5053371;28;20041;-53
2021/06/26 01:51:01;;;;;;;21.83;16.50;;;;;;;16.18;77.47;101770.97;5053263;28;20044;-49
2021/06/26 01:53:29;;;;;;;20.38;16.27;;;;;;;16.19;76.87;101769.88;5052275;28;20584;-52
2021/06/26 01:55:56;;;;;;;21.23;17.02;;;;;;;16.18;76.93;101770.97;5052898;28;20114;-51
2021/06/26 01:58:24;;;;;;;20.08;16.58;;;;;;;16.14;77.17;101772.66;5053041;28;20076;-51
2021/06/26 02:00:52;;;;;;;20.20;15.95;;;;;;;16.15;77.58;101773.47;5053268;28;20041;-54
2021/06/26 02:03:19;;;;;;;19.20;15.88;;;;;;;16.11;77.42;101770.44;5051847;28;20097;-52
2021/06/26 02:05:47;;;;;;;21.38;16.38;;;;;;;16.05;77.23;101774.34;5052092;28;20393;-51
2021/06/26 02:08:15;;;;;;;21.48;16.30;;;;;;;16.00;77.51;101777.09;5053288;28;20044;-54
2021/06/26 02:10:42;;;;;;;19.08;15.50;;;;;;;15.97;77.84;101773.00;5053149;28;20049;-50
2021/06/26 02:13:10;;;;;;;20.13;15.43;;;;;;;16.01;77.66;101769.69;5052699;28;20459;-52
2021/06/26 02:15:38;;;;;;;22.45;16.92;;;;;;;16.02;77.11;101774.06;5052798;28;20045;-53
2021/06/26 02:18:06;;;;;;;19.60;16.63;;;;;;;15.98;77.08;101788.38;5052884;28;20419;-52
2021/06/26 02:20:33;;;;;;;21.63;16.90;;;;;;;15.95;77.55;101785.38;5053051;28;20037;-53
2021/06/26 02:23:02;;;;;;;23.88;16.70;;;;;;;15.90;77.54;101786.22;5053170;28;20091;-51
2021/06/26 02:25:29;;;;;;;21.17;17.27;;;;;;;15.86;77.85;101785.13;5052366;28;20044;-52
2021/06/26 02:27:57;;;;;;;20.98;16.23;;;;;;;15.82;78.13;101781.28;5052605;28;20099;-51
2021/06/26 02:30:40;;;;;;;23.33;16.05;;;;;;;15.85;78.30;101789.00;5052614;28;20499;-50
2021/06/26 02:33:08;;;;;;;19.85;15.50;;;;;;;15.92;77.82;101791.41;5052686;28;20101;-50
2021/06/26 02:35:36;;;;;;;21.58;16.55;;;;;;;15.96;77.54;101779.59;5052401;28;20036;-50
2021/06/26 02:38:03;;;;;;;19.83;16.60;;;;;;;15.97;77.51;101781.25;5052752;28;20491;-50
2021/06/26 02:40:32;;;;;;;21.30;16.77;;;;;;;15.96;77.32;101781.50;5052439;28;20128;-49
2021/06/26 02:43:01;;;;;;;21.98;17.15;;;;;;;15.97;77.37;101778.50;5052317;28;20487;-52
2021/06/26 02:45:29;;;;;;;21.30;16.70;;;;;;;16.01;77.27;101777.94;5052492;28;20106;-51
2021/06/26 02:47:57;;;;;;;23.65;17.50;;;;;;;15.99;77.04;101783.69;5052428;28;20499;-50
2021/06/26 02:50:24;;;;;;;20.85;17.58;;;;;;;15.97;77.13;101783.19;5052348;28;20041;-51
2021/06/26 02:52:52;;;;;;;21.48;16.55;;;;;;;15.95;77.56;101771.63;5052445;28;20103;-49
2021/06/26 02:55:20;;;;;;;22.00;16.83;;;;;;;15.95;77.24;101774.38;5051868;28;20068;-50
2021/06/26 02:57:47;;;;;;;27.27;16.80;;;;;;;15.93;77.14;101779.34;5050821;28;20041;-49
2021/06/26 03:00:15;;;;;;;20.00;16.55;;;;;;;15.88;77.76;101776.59;5052457;28;20045;-50
2021/06/26 03:02:43;;;;;;;20.70;15.65;;;;;;;15.84;77.93;101778.25;5052079;28;20530;-51
2021/06/26 03:05:11;;;;;;;20.95;15.77;;;;;;;15.89;78.17;101789.22;5052324;28;20040;-50
2021/06/26 03:07:38;;;;;;;18.85;14.88;;;;;;;15.93;77.68;101784.84;5052477;28;20110;-52
2021/06/26 03:10:08;;;;;;;19.10;15.48;;;;;;;15.89;77.64;101776.31;5051632;28;20040;-49
2021/06/26 03:12:35;;;;;;;23.02;16.23;;;;;;;15.83;77.81;101782.13;5051972;28;20049;-50
2021/06/26 03:15:04;;;;;;;19.60;15.23;;;;;;;15.79;78.07;101783.78;5052161;28;20045;-50
2021/06/26 03:17:31;;;;;;;20.60;15.93;;;;;;;15.76;78.19;101787.91;5051690;28;20037;-50
2021/06/26 03:19:59;;;;;;;19.83;15.65;;;;;;;15.73;78.57;101778.31;5051968;28;20569;-50
2021/06/26 03:22:27;;;;;;;24.17;16.58;;;;;;;15.71;78.99;101766.75;5051814;28;20456;-50
2021/06/26 03:24:54;;;;;;;19.52;15.45;;;;;;;15.70;78.93;101773.34;5050420;28;20045;-49
2021/06/26 03:27:22;;;;;;;20.33;16.27;;;;;;;15.71;79.40;101768.69;5051647;28;20045;-49
2021/06/26 03:29:50;;;;;;;18.88;14.60;;;;;;;15.76;78.96;101772.25;5051916;28;20064;-51
2021/06/26 03:32:17;;;;;;;22.20;15.50;;;;;;;15.81;78.75;101773.34;5051661;28;20045;-51
2021/06/26 03:34:45;;;;;;;19.33;15.60;;;;;;;15.85;78.69;101777.16;5051878;28;20442;-49
2021/06/26 03:37:13;;;;;;;20.50;16.25;;;;;;;15.84;78.87;101768.09;5051948;28;20116;-52
2021/06/26 03:39:40;;;;;;;20.38;16.00;;;;;;;15.82;78.66;101781.28;5051504;28;20522;-53
2021/06/26 03:42:09;;;;;;;18.65;13.98;;;;;;;15.82;79.12;101769.47;5051643;28;20091;-51
2021/06/26 03:44:37;;;;;;;21.25;15.85;;;;;;;15.83;78.84;101771.13;5051942;28;20099;-51
2021/06/26 03:47:04;;;;;;;18.20;14.38;;;;;;;15.84;79.12;101770.03;5051843;28;20049;-48
2021/06/26 03:49:35;;;;;;;20.80;15.65;;;;;;;15.84;78.78;101768.09;5050358;28;20068;-52
2021/06/26 03:52:04;;;;;;;19.83;15.13;;;;;;;15.88;78.74;101768.38;5051475;28;20057;-51
2021/06/26 03:54:32;;;;;;;20.08;15.10;;;;;;;15.87;78.72;101772.19;5049818;28;20056;-51
2021/06/26 03:57:01;;;;;;;21.98;16.45;;;;;;;15.83;79.22;101779.38;5051759;28;20072;-49
2021/06/26 03:59:28;;;;;;;24.67;16.63;;;;;;;15.81;79.34;101779.66;5051581;28;20055;-51
2021/06/26 04:01:56;;;;;;;22.20;15.88;;;;;;;15.80;79.51;101769.75;5051736;28;20073;-50
2021/06/26 04:04:24;;;;;;;21.38;15.85;;;;;;;15.83;79.61;101779.38;5051493;28;20423;-53
2021/06/26 04:06:52;;;;;;;21.75;17.35;;;;;;;15.87;79.38;101770.25;5037699;28;20044;-50
2021/06/26 04:09:19;;;;;;;20.73;15.85;;;;;;;15.88;79.21;101779.34;5051229;28;20052;-50
2021/06/26 04:11:47;;;;;;;24.45;16.63;;;;;;;15.89;79.12;101784.56;5051421;28;20069;-51
2021/06/26 04:14:15;;;;;;;20.52;16.02;;;;;;;15.91;78.88;101778.78;5051264;28;20048;-52
2021/06/26 04:16:43;;;;;;;18.95;14.65;;;;;;;15.93;79.23;101784.84;5051557;28;20086;-50
2021/06/26 04:19:13;;;;;;;20.58;16.17;;;;;;;15.94;79.11;101789.22;5051529;28;20172;-49
2021/06/26 04:21:42;;;;;;;24.15;15.77;;;;;;;15.93;78.85;101787.59;5051197;28;20075;-51
2021/06/26 04:24:10;;;;;;;21.25;16.70;;;;;;;15.88;79.46;101791.16;5051237;28;20452;-51
2021/06/26 04:26:37;;;;;;;21.17;16.00;;;;;;;15.85;79.45;101793.63;5051411;28;20045;-50
2021/06/26 04:29:05;;;;;;;20.42;16.00;;;;;;;15.85;79.85;101782.66;5052712;28;20046;-51
2021/06/26 04:31:33;;;;;;;21.73;16.20;;;;;;;15.84;79.65;101781.00;5055165;28;20044;-50
2021/06/26 04:34:00;;;;;;;19.15;14.98;;;;;;;15.85;79.95;101774.41;5054640;28;20389;-50
2021/06/26 04:36:28;;;;;;;20.70;15.98;;;;;;;15.90;79.90;101782.66;5054594;28;20126;-51
2021/06/26 04:38:56;;;;;;;21.05;15.55;;;;;;;15.91;79.61;101778.78;5055003;28;20037;-50
2021/06/26 04:41:24;;;;;;;18.05;15.52;;;;;;;15.91;79.81;101787.03;5054815;28;20049;-49
2021/06/26 04:43:51;;;;;;;22.17;15.75;;;;;;;15.92;79.86;101791.41;5054645;28;20045;-51
2021/06/26 04:46:19;;;;;;;19.15;15.13;;;;;;;15.95;79.53;101790.88;5054779;28;20498;-50
2021/06/26 04:48:47;;;;;;;24.55;16.13;;;;;;;15.98;79.47;101793.88;5054581;28;20048;-52
2021/06/26 04:51:14;;;;;;;20.13;15.45;;;;;;;15.98;79.45;101784.81;5053832;28;20083;-51
2021/06/26 04:53:42;;;;;;;21.60;16.23;;;;;;;15.95;79.43;101791.69;5054487;28;20072;-52
2021/06/26 04:56:09;;;;;;;21.15;15.70;;;;;;;15.95;79.66;101785.38;5054253;28;20041;-53
2021/06/26 04:58:37;;;;;;;20.08;16.05;;;;;;;15.95;79.69;101783.44;5054364;28;20097;-50
2021/06/26 05:01:05;;;;;;;19.15;15.25;;;;;;;15.94;79.90;101780.97;5054616;28;20049;-53
2021/06/26 05:03:32;;;;;;;18.88;15.27;;;;;;;15.94;79.54;101786.47;5054246;28;20450;-51
2021/06/26 05:06:00;;;;;;;21.88;14.82;;;;;;;15.94;79.89;101783.72;5052440;28;20053;-50
2021/06/26 05:08:28;;;;;;;20.30;15.23;;;;;;;15.95;79.79;101779.88;5054003;28;20076;-53
2021/06/26 05:10:56;;;;;;;24.52;16.35;;;;;;;15.96;80.11;101781.50;5054219;28;20049;-51
2021/06/26 05:13:23;;;;;;;20.60;15.90;;;;;;;15.96;79.93;101784.25;5053841;28;20040;-49
2021/06/26 05:15:51;;;;;;;21.88;16.40;;;;;;;15.96;80.03;101776.00;5053128;28;20072;-50
2021/06/26 05:18:19;;;;;;;19.05;15.20;;;;;;;15.99;79.99;101783.69;5053911;28;20049;-50
2021/06/26 05:20:46;;;;;;;20.70;14.02;;;;;;;15.99;80.38;101780.94;5053688;28;20102;-52
2021/06/26 05:23:17;;;;;;;18.98;14.82;;;;;;;16.02;79.98;101785.91;5054346;28;20090;-53
2021/06/26 05:25:44;;;;;;;20.75;15.38;;;;;;;16.04;80.09;101780.91;5053775;28;20446;-50
2021/06/26 05:28:13;;;;;;;22.65;15.35;;;;;;;16.04;79.88;101775.41;5054280;28;20103;-51
2021/06/26 05:30:40;;;;;;;17.13;13.32;;;;;;;16.07;79.94;101766.63;5053466;28;20411;-52
2021/06/26 05:33:08;;;;;;;16.10;11.15;;;;;;;16.14;79.38;101772.66;5053695;28;20041;-52
2021/06/26 05:35:36;;;;;;;21.50;15.02;;;;;;;16.18;79.53;101773.72;5053493;28;20049;-51
2021/06/26 05:38:04;;;;;;;17.73;13.90;;;;;;;16.19;79.42;101780.88;5053645;28;20041;-50
2021/06/26 05:40:31;;;;;;;17.38;13.23;;;;;;;16.23;79.63;101774.78;5053839;28;20068;-52
2021/06/26 05:43:00;;;;;;;20.52;15.30;;;;;;;16.29;79.72;101774.50;5053197;28;20052;-52
2021/06/26 05:45:39;;;;;;;23.25;16.98;;;;;;;16.33;79.63;101780.22;5106932;27;1227385;-50
2021/06/26 05:48:07;;;;;;;20.35;14.93;;;;;;;16.34;79.67;101788.22;5130024;28;20039;-52
2021/06/26 05:50:35;;;;;;;22.48;18.00;;;;;;;16.33;80.03;101785.72;5129936;28;20104;-51
2021/06/26 05:53:03;;;;;;;22.70;15.57;;;;;;;16.33;80.06;101792.09;5130290;27;20489;-52
2021/06/26 05:55:31;;;;;;;26.42;19.55;;;;;;;16.38;80.17;101792.06;5130683;27;20039;-52
2021/06/26 05:58:00;;;;;;;25.77;18.67;;;;;;;16.43;80.09;101799.47;5130185;27;20481;-52
2021/06/26 06:00:32;;;;;;;33.90;22.13;;;;;;;16.45;79.82;101796.41;5121809;27;20035;-51
2021/06/26 06:03:02;;;;;;;29.83;21.75;;;;;;;16.45;80.31;101789.00;5116376;27;20044;-55
2021/06/26 06:05:30;;;;;;;22.90;16.38;;;;;;;16.48;79.47;101793.91;5120027;28;20043;-55
2021/06/26 06:07:58;;;;;;;22.08;16.60;;;;;;;16.51;79.69;101798.84;5119588;27;20035;-56
2021/06/26 06:10:27;;;;;;;31.33;19.45;;;;;;;16.53;79.71;101804.91;5116931;28;20039;-56
2021/06/26 06:12:56;;;;;;;24.88;19.23;;;;;;;16.59;78.89;101800.97;5121199;27;20405;-54
2021/06/26 06:15:24;;;;;;;15.43;11.00;;;;;;;16.64;78.71;101802.06;5103117;28;20066;-52
2021/06/26 06:17:52;;;;;;;22.42;18.02;;;;;;;16.68;78.45;101803.97;5088760;28;20044;-49
2021/06/26 06:20:19;;;;;;;27.60;19.92;;;;;;;16.71;78.08;101808.06;5089221;28;20044;-48
2021/06/26 06:22:47;;;;;;;23.02;19.02;;;;;;;16.72;78.14;101804.25;5089150;28;20567;-49
2021/06/26 06:25:15;;;;;;;20.88;16.88;;;;;;;16.74;78.33;101813.00;5088841;28;20044;-50
2021/06/26 06:27:42;;;;;;;23.85;18.70;;;;;;;16.76;78.92;101806.13;5088743;28;20111;-55
2021/06/26 06:30:11;;;;;;;24.88;20.45;;;;;;;16.79;79.00;101805.59;5088665;28;20105;-52
2021/06/26 06:32:38;;;;;;;26.90;21.50;;;;;;;16.82;78.75;101807.75;5088740;28;20068;-54
2021/06/26 06:35:07;;;;;;;20.60;16.00;;;;;;;16.86;78.24;101799.75;5089055;28;20055;-55
2021/06/26 06:37:36;;;;;;;25.08;20.95;;;;;;;16.88;78.06;101803.03;5089479;28;20036;-53
2021/06/26 06:40:06;;;;;;;23.17;19.35;;;;;;;16.92;78.19;101808.81;5089242;28;20036;-55
2021/06/26 06:42:34;;;;;;;21.42;15.95;;;;;;;16.98;77.94;101814.00;5088872;28;20044;-55
2021/06/26 06:45:03;;;;;;;29.13;21.80;;;;;;;16.99;78.93;101815.63;5088233;28;20059;-52
2021/06/26 06:47:30;;;;;;;22.30;17.08;;;;;;;17.01;78.82;101802.38;5087823;28;20449;-54
2021/06/26 06:49:58;;;;;;;23.42;17.25;;;;;;;17.05;78.35;101810.88;5088444;28;20052;-51
2021/06/26 06:52:26;;;;;;;24.23;19.60;;;;;;;17.09;77.77;101813.91;5105826;28;20031;-51
2021/06/26 06:54:53;;;;;;;23.95;18.70;;;;;;;17.12;77.98;101816.88;5108243;27;20052;-52
2021/06/26 06:57:25;;;;;;;20.67;16.30;;;;;;;17.15;77.22;101813.56;5105215;28;20405;-53
2021/06/26 06:59:53;;;;;;;17.63;14.38;;;;;;;17.18;77.61;101817.69;5095767;28;20448;-50
2021/06/26 07:02:21;;;;;;;23.85;16.00;;;;;;;17.20;77.16;101813.53;5095890;28;20043;-49
2021/06/26 07:04:49;;;;;;;22.30;17.27;;;;;;;17.24;77.62;101813.75;5098799;28;20037;-51
2021/06/26 07:07:16;;;;;;;20.52;15.85;;;;;;;17.29;77.17;101813.72;5103339;28;20486;-51
2021/06/26 07:09:44;;;;;;;23.08;18.33;;;;;;;17.33;76.50;101806.53;5101435;28;20067;-52
2021/06/26 07:12:12;;;;;;;21.40;17.55;;;;;;;17.35;76.47;101814.50;5099832;28;20535;-51
2021/06/26 07:14:39;;;;;;;23.23;17.42;;;;;;;17.37;76.38;101818.63;5096182;28;20401;-53
2021/06/26 07:17:07;;;;;;;20.80;16.58;;;;;;;17.41;76.27;101813.34;5077131;28;20041;-52
2021/06/26 07:19:35;;;;;;;20.85;15.68;;;;;;;17.45;76.14;101806.13;5074199;28;20106;-52
2021/06/26 07:22:03;;;;;;;22.33;17.70;;;;;;;17.48;75.74;101804.72;5074409;28;20051;-55
2021/06/26 07:24:44;;;;;;;26.35;16.08;;;;;;;17.53;75.26;101801.94;5072977;28;20045;-50
2021/06/26 07:27:13;;;;;;;23.50;15.60;;;;;;;17.58;75.03;101793.59;5073891;28;20109;-51
2021/06/26 07:29:41;;;;;;;20.45;14.57;;;;;;;17.61;74.99;101793.84;5073951;28;20041;-53
2021/06/26 07:32:08;;;;;;;25.27;15.73;;;;;;;17.65;75.70;101794.06;5085886;28;20051;-54
2021/06/26 07:34:39;;;;;;;23.33;17.00;;;;;;;17.71;76.08;101789.34;5107072;28;20559;-52
2021/06/26 07:37:07;;;;;;;25.35;15.15;;;;;;;17.76;75.51;101792.88;5108225;28;20051;-53
2021/06/26 07:39:35;;;;;;;22.65;15.45;;;;;;;17.84;74.17;101796.94;5103534;28;20089;-49
2021/06/26 07:42:03;;;;;;;22.90;18.90;;;;;;;17.85;74.86;101788.38;5109661;28;20055;-49
2021/06/26 07:44:30;;;;;;;25.15;19.30;;;;;;;17.91;74.47;101791.06;5103782;28;20510;-48
2021/06/26 07:46:58;;;;;;;24.17;17.95;;;;;;;17.95;74.25;101797.66;5109337;27;20494;-49
2021/06/26 07:49:26;;;;;;;26.30;18.83;;;;;;;17.95;74.14;101792.94;5104223;28;20096;-52
2021/06/26 07:51:53;;;;;;;21.85;16.63;;;;;;;17.94;73.65;101793.25;5109590;28;20047;-52
2021/06/26 07:54:21;;;;;;;22.52;16.00;;;;;;;17.98;74.06;101797.06;5107117;28;20040;-49
2021/06/26 07:56:49;;;;;;;43.42;20.60;;;;;;;18.02;73.27;101792.59;5107698;28;20044;-47
2021/06/26 07:59:16;;;;;;;24.73;19.23;;;;;;;18.06;72.75;101788.13;5107877;28;20047;-49
2021/06/26 08:01:44;;;;;;;23.95;18.92;;;;;;;18.09;73.11;101782.84;5106871;28;20039;-47
2021/06/26 08:04:12;;;;;;;33.60;19.55;;;;;;;18.15;72.81;101780.84;4396196;28;10000678;-48
2021/06/26 08:06:40;;;;;;;32.90;18.85;;;;;;;18.19;72.87;101779.13;5101738;27;20070;-50
2021/06/26 08:09:07;;;;;;;33.65;19.23;;;;;;;18.21;72.32;101785.19;5106469;28;20405;-49
2021/06/26 08:11:35;;;;;;;32.90;17.70;;;;;;;18.22;72.34;101786.81;5101967;28;20094;-49
2021/06/26 08:14:03;;;;;;;25.58;18.20;;;;;;;18.28;72.48;101785.63;5100594;28;20032;-51
2021/06/26 08:16:30;;;;;;;25.48;19.38;;;;;;;18.30;72.10;101786.16;5079223;28;20041;-50
2021/06/26 08:18:58;;;;;;;24.52;14.25;;;;;;;18.29;72.15;101781.75;5070698;28;20414;-49
2021/06/26 08:21:27;;;;;;;24.10;19.30;;;;;;;18.30;71.65;101783.41;5071315;28;20041;-49
2021/06/26 08:23:54;;;;;;;25.60;19.00;;;;;;;18.38;70.89;101792.97;5070788;28;20086;-50
2021/06/26 08:26:22;;;;;;;28.10;19.08;;;;;;;18.42;71.06;101784.88;5072239;28;20063;-50
2021/06/26 08:28:50;;;;;;;24.55;17.77;;;;;;;18.48;70.78;101784.53;5072581;28;20045;-50
2021/06/26 08:31:18;;;;;;;24.73;17.73;;;;;;;18.50;70.53;101781.47;5073267;28;20098;-49
2021/06/26 08:33:46;;;;;;;26.27;17.13;;;;;;;18.55;70.42;101778.63;5072595;28;20049;-48
2021/06/26 08:36:13;;;;;;;25.48;19.35;;;;;;;18.60;69.46;101775.81;5073065;28;20086;-48
2021/06/26 08:38:41;;;;;;;23.33;17.73;;;;;;;18.66;69.44;101780.09;5072691;28;20521;-48
2021/06/26 08:41:09;;;;;;;23.73;16.77;;;;;;;18.73;69.75;101769.50;5072737;28;20517;-51
2021/06/26 08:43:37;;;;;;;23.13;17.15;;;;;;;18.79;69.03;101777.78;5070929;28;20090;-47
2021/06/26 08:46:04;;;;;;;19.75;14.40;;;;;;;18.85;69.22;101776.56;5070961;28;20113;-50
2021/06/26 08:48:33;;;;;;;24.45;18.30;;;;;;;18.95;69.22;101776.38;5072646;28;20106;-49
2021/06/26 08:51:01;;;;;;;26.67;18.45;;;;;;;19.01;67.26;101777.94;5071099;28;20044;-50
2021/06/26 08:53:29;;;;;;;23.77;18.13;;;;;;;19.08;67.23;101778.38;5072794;28;20617;-50
2021/06/26 08:55:56;;;;;;;23.83;14.50;;;;;;;19.13;67.44;101777.47;5072200;28;20044;-49
2021/06/26 08:58:24;;;;;;;22.73;18.10;;;;;;;19.14;66.67;101782.69;5071879;28;20063;-46
2021/06/26 09:00:52;;;;;;;26.40;17.95;;;;;;;19.15;66.42;101784.34;5084249;28;20047;-46
2021/06/26 09:03:23;;;;;;;27.65;19.30;;;;;;;19.15;65.14;101787.09;5105928;28;20040;-50
2021/06/26 09:05:51;;;;;;;47.90;14.85;;;;;;;19.14;66.50;101785.44;5109816;28;20031;-47
2021/06/26 09:08:20;;;;;;;28.27;18.98;;;;;;;19.14;66.48;101779.09;5106940;28;20033;-47
2021/06/26 09:10:50;;;;;;;23.33;17.35;;;;;;;19.23;66.18;101784.75;5109976;28;20047;-50
2021/06/26 09:13:24;;;;;;;25.08;18.60;;;;;;;19.27;65.97;101783.84;5106564;28;20044;-49
2021/06/26 09:16:11;;;;;;;24.70;18.65;;;;;;;19.35;65.61;101779.56;5072086;28;20056;-49
2021/06/26 09:18:40;;;;;;;24.27;15.75;;;;;;;19.39;65.03;101791.66;5071612;28;20044;-49
2021/06/26 09:21:28;;;;;;;24.15;17.60;;;;;;;19.39;65.09;101786.13;5072310;28;20588;-49
2021/06/26 09:24:00;;;;;;;27.17;20.10;;;;;;;19.42;64.64;101784.72;5071915;28;20626;-49
2021/06/26 09:26:28;;;;;;;27.83;19.92;;;;;;;19.47;64.92;101790.13;5071585;28;20060;-50
2021/06/26 09:29:06;;;;;;;22.35;16.75;;;;;;;19.63;62.99;101774.09;5072012;28;20105;-50
2021/06/26 09:31:34;;;;;;;27.50;19.60;;;;;;;19.69;62.61;101776.47;5072016;28;20107;-48
2021/06/26 09:34:04;;;;;;;26.05;19.13;;;;;;;19.74;61.60;101772.78;5070797;28;20075;-49
2021/06/26 09:36:32;;;;;;;21.75;15.82;;;;;;;19.77;61.44;101769.38;5071933;28;20037;-47
2021/06/26 09:39:06;;;;;;;20.60;15.48;;;;;;;19.79;62.23;101780.97;5071591;28;20098;-47
2021/06/26 09:41:34;;;;;;;19.67;14.13;;;;;;;19.79;62.54;101778.19;5070299;28;20060;-47
2021/06/26 09:44:12;;;;;;;23.48;16.83;;;;;;;19.79;62.16;101779.03;5071478;28;20036;-48
2021/06/26 09:46:47;;;;;;;20.48;14.98;;;;;;;19.79;61.12;101769.91;5071976;28;20083;-48
2021/06/26 09:49:15;;;;;;;25.70;17.50;;;;;;;19.81;61.32;101775.94;5070459;28;20087;-49
2021/06/26 09:51:42;;;;;;;23.80;17.60;;;;;;;19.82;60.78;101777.63;5071767;28;20044;-49
2021/06/26 09:54:10;;;;;;;24.25;18.30;;;;;;;19.87;60.21;101769.22;5071932;28;20040;-52
2021/06/26 09:56:46;;;;;;;27.05;20.00;;;;;;;19.99;60.03;101775.03;5071652;28;20047;-49
2021/06/26 09:59:15;;;;;;;30.17;22.05;;;;;;;20.06;59.81;101779.31;5071911;28;20045;-49
2021/06/26 10:01:45;;;;;;;31.23;20.90;;;;;;;20.05;60.07;101781.28;5071440;28;20055;-51
2021/06/26 10:04:15;;;;;;;24.80;20.02;;;;;;;20.04;59.97;101781.59;4378996;28;10000427;-51
2021/06/26 10:06:44;;;;;;;25.83;20.75;;;;;;;20.04;59.37;101787.13;5069942;28;20052;-49
2021/06/26 10:09:13;;;;;;;25.20;19.50;;;;;;;20.10;59.18;101774.81;5069588;28;20106;-49
2021/06/26 10:11:41;;;;;;;28.27;19.40;;;;;;;20.24;58.74;101781.16;5069003;28;20041;-48
2021/06/26 10:14:10;;;;;;;29.65;19.55;;;;;;;20.40;57.59;101779.69;5075294;28;20071;-52
2021/06/26 10:16:39;;;;;;;23.58;18.00;;;;;;;20.42;57.98;101780.19;5076160;28;20048;-49
2021/06/26 10:19:12;;;;;;;25.67;17.98;;;;;;;20.50;56.69;101780.59;5069169;28;20127;-49
2021/06/26 10:21:43;;;;;;;31.42;19.88;;;;;;;20.60;56.07;101780.38;5069290;28;20040;-49
2021/06/26 10:24:13;;;;;;;26.85;18.35;;;;;;;20.62;56.30;101778.94;5068596;28;20590;-55
2021/06/26 10:26:43;;;;;;;27.63;20.98;;;;;;;20.59;56.38;101775.97;5068187;28;20105;-46
2021/06/26 10:29:13;;;;;;;33.95;21.13;;;;;;;20.57;57.27;101775.47;5068837;28;20036;-50
2021/06/26 10:31:43;;;;;;;23.75;16.58;;;;;;;20.54;57.04;101767.72;5071749;28;20044;-48
2021/06/26 10:34:13;;;;;;;26.75;20.73;;;;;;;20.51;56.47;101760.06;5073050;28;20039;-52
2021/06/26 10:36:45;;;;;;;24.45;18.13;;;;;;;20.48;56.64;101755.16;5072980;28;20044;-51
2021/06/26 10:39:25;;;;;;;26.20;19.33;;;;;;;20.52;57.08;101756.19;5072365;28;20044;-53
2021/06/26 10:42:03;;;;;;;26.77;19.38;;;;;;;20.58;56.32;101769.59;5072812;28;20045;-52
2021/06/26 10:44:46;;;;;;;24.65;17.55;;;;;;;20.62;55.07;101764.28;5072454;28;20044;-49
2021/06/26 10:47:15;;;;;;;24.92;17.45;;;;;;;20.67;55.20;101764.16;5072929;28;20045;-49
2021/06/26 10:49:43;;;;;;;28.77;17.88;;;;;;;20.71;55.02;101758.78;5072555;28;20051;-49
2021/06/26 10:52:10;;;;;;;29.25;19.15;;;;;;;20.71;54.18;101759.63;5072608;28;20101;-49
2021/06/26 10:54:55;;;;;;;26.92;18.60;;;;;;;20.69;55.10;101764.66;5072210;28;20064;-49
2021/06/26 10:57:24;;;;;;;25.90;19.90;;;;;;;20.71;54.81;101764.31;5072855;28;20090;-49
2021/06/26 11:00:00;;;;;;;26.58;20.77;;;;;;;20.75;55.04;101766.16;5072250;28;20033;-50
2021/06/26 11:02:42;;;;;;;29.48;20.45;;;;;;;20.84;54.92;101764.28;5072172;28;20075;-49
2021/06/26 11:05:11;;;;;;;29.80;20.80;;;;;;;20.87;54.54;101762.81;5071587;28;20052;-49
2021/06/26 11:07:40;;;;;;;24.73;17.52;;;;;;;20.83;54.09;101765.41;5072175;28;20052;-50
2021/06/26 11:10:14;;;;;;;28.25;19.70;;;;;;;20.81;53.50;101767.69;5072511;28;20052;-50
2021/06/26 11:12:46;;;;;;;31.30;18.67;;;;;;;20.79;54.04;101761.63;5074774;28;20044;-51
2021/06/26 11:15:16;;;;;;;29.88;19.48;;;;;;;20.79;54.06;101763.59;5088205;28;20044;-50
2021/06/26 11:17:44;;;;;;;21.25;16.13;;;;;;;20.77;54.44;101769.44;5074621;28;20074;-50